createdAt,value
2022-08-17T00:02:26.283Z,16.40
2022-08-17T00:04:55.430Z,16.40
2022-08-17T00:07:22.790Z,16.40
2022-08-17T00:09:49.771Z,16.30
2022-08-17T00:12:43.534Z,16.20
2022-08-17T00:15:05.548Z,16.20
2022-08-17T00:17:33.098Z,16.10
2022-08-17T00:20:00.703Z,16.10
2022-08-17T00:22:35.151Z,16.10
2022-08-17T00:25:07.980Z,16.10
2022-08-17T00:27:35.451Z,16.10
2022-08-17T00:30:02.415Z,16.10
2022-08-17T00:33:12.631Z,16.10
2022-08-17T00:35:18.425Z,16.20
2022-08-17T00:37:45.682Z,16.10
2022-08-17T00:40:15.108Z,16.00
2022-08-17T00:42:43.350Z,16.10
2022-08-17T00:45:12.243Z,16.00
2022-08-17T00:47:39.326Z,15.90
2022-08-17T00:50:09.579Z,16.00
2022-08-17T00:52:41.524Z,15.90
2022-08-17T00:55:09.409Z,15.90
2022-08-17T00:57:42.514Z,15.90
2022-08-17T01:00:12.395Z,15.90
2022-08-17T01:02:44.064Z,15.90
2022-08-17T01:05:18.641Z,15.80
2022-08-17T01:07:47.934Z,15.80
2022-08-17T01:10:57.254Z,15.90
2022-08-17T01:13:05.455Z,15.90
2022-08-17T01:15:37.477Z,16.00
2022-08-17T01:18:10.493Z,15.90
2022-08-17T01:20:48.432Z,15.80
2022-08-17T01:23:20.579Z,15.70
2022-08-17T01:25:55.067Z,15.70
2022-08-17T01:28:36.401Z,15.60
2022-08-17T01:31:10.150Z,15.60
2022-08-17T01:33:37.405Z,15.60
2022-08-17T01:36:07.204Z,15.60
2022-08-17T01:38:35.486Z,15.60
2022-08-17T01:41:07.885Z,15.50
2022-08-17T01:43:47.048Z,15.60
2022-08-17T01:46:24.410Z,15.70
2022-08-17T01:48:51.641Z,15.70
2022-08-17T01:51:19.991Z,15.80
2022-08-17T01:53:51.197Z,15.80
2022-08-17T01:56:21.390Z,15.80
2022-08-17T01:58:48.743Z,15.70
2022-08-17T02:01:18.791Z,15.60
2022-08-17T02:03:56.256Z,15.50
2022-08-17T02:06:45.191Z,15.40
2022-08-17T02:09:23.300Z,15.30
2022-08-17T02:11:52.889Z,15.30
2022-08-17T02:14:21.587Z,15.20
2022-08-17T02:16:48.480Z,15.30
2022-08-17T02:19:17.015Z,15.30
2022-08-17T02:21:47.455Z,15.30
2022-08-17T02:24:58.893Z,15.20
2022-08-17T02:27:08.758Z,15.20
2022-08-17T02:29:35.719Z,15.10
2022-08-17T02:32:02.827Z,15.10
2022-08-17T02:34:30.131Z,15.00
2022-08-17T02:36:57.062Z,15.00
2022-08-17T02:39:24.052Z,15.00
2022-08-17T02:41:59.858Z,15.10
2022-08-17T02:44:39.332Z,15.10
2022-08-17T02:47:09.194Z,15.00
2022-08-17T02:49:36.512Z,15.00
2022-08-17T02:52:06.674Z,15.20
2022-08-17T02:54:39.916Z,15.20
2022-08-17T02:57:08.019Z,15.20
2022-08-17T02:59:34.885Z,15.30
2022-08-17T03:02:04.216Z,15.30
2022-08-17T03:04:31.297Z,15.20
2022-08-17T03:07:02.624Z,15.10
2022-08-17T03:09:29.521Z,15.10
2022-08-17T03:12:08.481Z,15.00
2022-08-17T03:14:41.706Z,15.00
2022-08-17T03:17:15.877Z,14.90
2022-08-17T03:19:44.965Z,15.00
2022-08-17T03:22:36.426Z,15.00
2022-08-17T03:24:59.027Z,15.00
2022-08-17T03:27:26.337Z,15.10
2022-08-17T03:29:54.395Z,15.00
2022-08-17T03:32:21.628Z,14.90
2022-08-17T03:34:48.572Z,14.90
2022-08-17T03:37:15.711Z,14.90
2022-08-17T03:39:42.988Z,15.00
2022-08-17T03:42:31.986Z,14.90
2022-08-17T03:45:00.635Z,14.80
2022-08-17T03:47:46.542Z,14.80
2022-08-17T03:50:32.919Z,14.70
2022-08-17T03:53:18.900Z,14.60
2022-08-17T03:56:04.557Z,14.70
2022-08-17T03:58:31.541Z,14.70
2022-08-17T04:00:58.601Z,14.70
2022-08-17T04:03:25.604Z,14.70
2022-08-17T04:05:52.601Z,14.60
2022-08-17T04:08:19.504Z,14.60
2022-08-17T04:10:46.695Z,14.60
2022-08-17T04:13:14.215Z,14.60
2022-08-17T04:15:41.311Z,14.60
2022-08-17T04:18:11.023Z,14.60
2022-08-17T04:20:38.142Z,14.70
2022-08-17T04:23:07.110Z,14.70
2022-08-17T04:25:36.777Z,14.80
2022-08-17T04:28:05.373Z,15.10
2022-08-17T04:30:41.477Z,15.10
2022-08-17T04:33:12.859Z,15.20
2022-08-17T04:35:42.522Z,15.20
2022-08-17T04:38:13.100Z,15.20
2022-08-17T04:40:58.646Z,15.30
2022-08-17T04:43:27.170Z,15.40
2022-08-17T04:46:00.442Z,15.50
2022-08-17T04:48:49.273Z,15.40
2022-08-17T04:51:29.379Z,15.50
2022-08-17T04:54:00.448Z,15.40
2022-08-17T04:56:29.288Z,15.50
2022-08-17T04:58:59.170Z,15.60
2022-08-17T05:01:28.513Z,15.60
2022-08-17T05:03:59.214Z,15.70
2022-08-17T05:06:28.435Z,15.80
2022-08-17T05:08:56.290Z,15.90
2022-08-17T05:11:24.166Z,16.00
2022-08-17T05:13:51.260Z,16.10
2022-08-17T05:16:19.964Z,16.30
2022-08-17T05:18:47.603Z,16.40
2022-08-17T05:21:15.237Z,16.50
2022-08-17T05:23:43.572Z,16.60
2022-08-17T05:26:17.944Z,16.70
2022-08-17T05:28:55.090Z,16.90
2022-08-17T05:31:25.584Z,17.00
2022-08-17T05:33:53.349Z,17.10
2022-08-17T05:36:42.574Z,17.20
2022-08-17T05:39:07.231Z,17.30
2022-08-17T05:41:34.149Z,17.50
2022-08-17T05:44:01.032Z,17.60
2022-08-17T05:46:36.431Z,17.70
2022-08-17T05:49:07.929Z,17.90
2022-08-17T05:51:52.583Z,18.00
2022-08-17T05:54:39.576Z,18.10
2022-08-17T05:57:15.710Z,18.20
2022-08-17T06:00:07.284Z,18.40
2022-08-17T06:03:14.443Z,18.50
2022-08-17T06:05:51.541Z,18.70
2022-08-17T06:08:26.964Z,18.90
2022-08-17T06:11:20.563Z,19.00
2022-08-17T06:14:20.060Z,19.20
2022-08-17T06:16:53.515Z,19.30
2022-08-17T06:19:32.299Z,19.50
2022-08-17T06:22:00.754Z,19.60
2022-08-17T06:24:34.341Z,19.70
2022-08-17T06:27:12.910Z,19.90
2022-08-17T06:29:39.836Z,20.00
2022-08-17T06:32:10.212Z,20.20
2022-08-17T06:34:41.298Z,20.40
2022-08-17T06:37:22.968Z,20.50
2022-08-17T06:40:08.787Z,20.70
2022-08-17T06:43:05.475Z,20.80
2022-08-17T06:45:49.418Z,20.90
2022-08-17T06:48:24.901Z,21.10
2022-08-17T06:51:09.812Z,21.20
2022-08-17T06:53:55.681Z,21.30
2022-08-17T06:56:54.130Z,21.50
2022-08-17T06:59:55.924Z,21.60
2022-08-17T07:03:02.436Z,21.70
2022-08-17T07:05:43.876Z,21.90
2022-08-17T07:08:34.686Z,22.00
2022-08-17T07:11:29.805Z,22.20
2022-08-17T07:14:37.606Z,22.30
2022-08-17T07:17:14.516Z,22.50
2022-08-17T07:19:45.713Z,22.60
2022-08-17T07:22:18.740Z,22.70
2022-08-17T07:24:48.575Z,22.90
2022-08-17T07:27:32.138Z,23.00
2022-08-17T07:30:10.296Z,23.10
2022-08-17T07:33:01.145Z,23.10
2022-08-17T07:35:37.852Z,23.20
2022-08-17T07:38:28.469Z,23.30
2022-08-17T07:41:01.961Z,23.40
2022-08-17T07:43:34.843Z,23.50
2022-08-17T07:46:39.071Z,23.70
2022-08-17T07:49:14.558Z,23.70
2022-08-17T07:51:44.395Z,23.90
2022-08-17T07:54:23.133Z,24.00
2022-08-17T07:56:52.509Z,24.10
2022-08-17T07:59:33.802Z,24.20
2022-08-17T08:02:03.822Z,24.20
2022-08-17T08:07:31.947Z,24.40
2022-08-17T08:10:36.807Z,24.50
2022-08-17T08:13:22.412Z,24.70
2022-08-17T08:15:55.781Z,24.80
2022-08-17T08:18:53.866Z,24.90
2022-08-17T08:21:33.156Z,25.00
2022-08-17T08:24:33.067Z,25.20
2022-08-17T08:27:12.290Z,25.30
2022-08-17T08:30:11.932Z,25.40
2022-08-17T08:32:46.122Z,25.50
2022-08-17T08:35:39.045Z,25.70
2022-08-17T08:38:07.519Z,25.70
2022-08-17T08:40:56.025Z,25.80
2022-08-17T08:43:42.513Z,26.00
2022-08-17T08:46:35.411Z,26.10
2022-08-17T08:50:02.731Z,26.20
2022-08-17T08:52:42.491Z,26.30
2022-08-17T08:55:14.267Z,26.40
2022-08-17T08:57:48.783Z,26.50
2022-08-17T09:00:24.983Z,26.60
2022-08-17T09:03:12.732Z,26.60
2022-08-17T09:05:56.039Z,26.70
2022-08-17T09:08:28.910Z,26.70
2022-08-17T09:11:22.754Z,26.90
2022-08-17T09:14:22.089Z,26.90
2022-08-17T09:17:04.004Z,27.00
2022-08-17T09:19:49.244Z,27.10
2022-08-17T09:22:32.410Z,27.10
2022-08-17T09:25:07.220Z,27.30
2022-08-17T09:27:53.679Z,27.30
2022-08-17T09:30:21.407Z,27.40
2022-08-17T09:32:56.577Z,27.50
2022-08-17T09:35:36.520Z,27.60
2022-08-17T09:38:32.748Z,27.60
2022-08-17T09:41:16.001Z,27.70
2022-08-17T09:44:06.941Z,27.70
2022-08-17T09:46:41.208Z,27.90
2022-08-17T09:49:31.614Z,28.10
2022-08-17T09:52:06.311Z,28.10
2022-08-17T09:54:39.532Z,28.10
2022-08-17T09:57:31.396Z,28.20
2022-08-17T10:00:16.051Z,28.30
2022-08-17T10:03:09.576Z,28.40
2022-08-17T10:05:46.486Z,28.50
2022-08-17T10:08:24.338Z,28.50
2022-08-17T10:11:57.504Z,28.40
2022-08-17T10:14:37.252Z,28.50
2022-08-17T10:17:28.770Z,28.50
2022-08-17T10:20:27.202Z,28.70
2022-08-17T10:23:28.093Z,28.70
2022-08-17T10:26:13.186Z,28.80
2022-08-17T10:29:06.696Z,28.90
2022-08-17T10:32:04.112Z,29.00
2022-08-17T10:35:00.088Z,29.00
2022-08-17T10:37:51.522Z,29.10
2022-08-17T10:41:10.595Z,29.20
2022-08-17T10:44:36.582Z,29.20
2022-08-17T10:47:10.526Z,29.40
2022-08-17T10:49:44.334Z,29.40
2022-08-17T10:52:20.449Z,29.50
2022-08-17T10:55:06.060Z,29.50
2022-08-17T10:57:42.665Z,29.50
2022-08-17T11:00:35.939Z,29.70
2022-08-17T11:03:22.471Z,29.70
2022-08-17T11:06:14.150Z,29.70
2022-08-17T11:08:58.838Z,29.80
2022-08-17T11:11:43.424Z,29.80
2022-08-17T11:14:48.056Z,29.90
2022-08-17T11:18:01.624Z,30.10
2022-08-17T11:20:28.660Z,30.00
2022-08-17T11:23:32.851Z,30.10
2022-08-17T11:26:08.606Z,30.20
2022-08-17T11:28:48.859Z,30.20
2022-08-17T11:31:44.335Z,30.30
2022-08-17T11:34:18.889Z,30.30
2022-08-17T11:37:20.249Z,30.50
2022-08-17T11:40:18.258Z,30.60
2022-08-17T11:43:27.463Z,30.50
2022-08-17T11:46:12.243Z,30.50
2022-08-17T11:49:16.619Z,30.60
2022-08-17T11:52:01.669Z,30.60
2022-08-17T11:54:33.776Z,30.60
2022-08-17T11:57:26.323Z,30.60
2022-08-17T12:00:00.483Z,30.70
2022-08-17T12:02:38.824Z,30.60
2022-08-17T12:05:14.600Z,30.70
2022-08-17T12:07:52.145Z,30.70
2022-08-17T12:10:23.572Z,30.70
2022-08-17T12:12:52.888Z,30.80
2022-08-17T12:15:28.596Z,30.90
2022-08-17T12:17:57.800Z,30.90
2022-08-17T12:20:37.690Z,31.00
2022-08-17T12:23:07.370Z,31.10
2022-08-17T12:25:47.685Z,31.10
2022-08-17T12:28:29.870Z,31.00
2022-08-17T12:31:02.558Z,31.10
2022-08-17T12:33:29.831Z,31.10
2022-08-17T12:36:00.059Z,31.20
2022-08-17T12:38:33.274Z,31.20
2022-08-17T12:41:21.413Z,31.30
2022-08-17T12:44:06.521Z,31.30
2022-08-17T12:47:04.598Z,31.30
2022-08-17T12:49:37.907Z,31.40
2022-08-17T12:52:20.081Z,31.40
2022-08-17T12:54:55.894Z,31.30
2022-08-17T12:57:33.807Z,31.40
2022-08-17T13:00:08.782Z,31.50
2022-08-17T13:03:05.941Z,31.50
2022-08-17T13:05:41.524Z,31.50
2022-08-17T13:08:17.751Z,31.60
2022-08-17T13:10:56.528Z,31.50
2022-08-17T13:13:26.815Z,31.60
2022-08-17T13:16:00.834Z,31.50
2022-08-17T13:18:39.864Z,31.50
2022-08-17T13:21:19.360Z,31.50
2022-08-17T13:24:08.104Z,31.50
2022-08-17T13:26:40.279Z,31.60
2022-08-17T13:29:29.648Z,31.50
2022-08-17T13:32:33.369Z,31.50
2022-08-17T13:35:14.281Z,31.50
2022-08-17T13:38:01.506Z,31.50
2022-08-17T13:40:37.836Z,31.50
2022-08-17T13:43:05.575Z,31.60
2022-08-17T13:45:39.860Z,31.70
2022-08-17T13:48:14.151Z,31.70
2022-08-17T13:50:56.530Z,31.70
2022-08-17T13:53:33.989Z,31.80
2022-08-17T13:56:31.702Z,31.80
2022-08-17T13:59:05.061Z,31.80
2022-08-17T14:01:53.371Z,31.90
2022-08-17T14:04:28.016Z,31.90
2022-08-17T14:07:04.392Z,31.90
2022-08-17T14:09:53.331Z,31.90
2022-08-17T14:12:26.335Z,32.00
2022-08-17T14:14:55.092Z,32.10
2022-08-17T14:17:23.241Z,32.20
2022-08-17T14:19:51.283Z,32.20
2022-08-17T14:22:28.543Z,32.20
2022-08-17T14:24:58.104Z,32.10
2022-08-17T14:27:28.168Z,32.10
2022-08-17T14:29:56.472Z,32.00
2022-08-17T14:32:30.011Z,32.00
2022-08-17T14:34:57.899Z,31.90
2022-08-17T14:37:28.006Z,31.90
2022-08-17T14:40:00.529Z,31.80
2022-08-17T14:42:30.330Z,31.80
2022-08-17T14:44:58.834Z,31.80
2022-08-17T14:47:26.671Z,31.90
2022-08-17T14:49:53.744Z,31.90
2022-08-17T14:52:22.107Z,31.80
2022-08-17T14:54:51.422Z,31.70
2022-08-17T14:57:33.743Z,31.70
2022-08-17T15:00:02.388Z,31.50
2022-08-17T15:02:30.855Z,31.20
2022-08-17T15:05:06.042Z,31.10
2022-08-17T15:07:32.959Z,30.90
2022-08-17T15:10:01.380Z,30.80
2022-08-17T15:12:33.084Z,30.90
2022-08-17T15:15:05.195Z,30.90
2022-08-17T15:17:45.043Z,31.00
2022-08-17T15:20:28.043Z,30.90
2022-08-17T15:22:56.194Z,31.00
2022-08-17T15:25:24.677Z,31.20
2022-08-17T15:27:51.954Z,31.30
2022-08-17T15:30:19.728Z,31.40
2022-08-17T15:32:51.263Z,31.40
2022-08-17T15:35:27.727Z,31.30
2022-08-17T15:38:11.251Z,31.20
2022-08-17T15:40:42.824Z,31.10
2022-08-17T15:43:28.197Z,30.90
2022-08-17T15:46:01.523Z,30.80
2022-08-17T15:48:41.475Z,30.70
2022-08-17T15:51:30.803Z,30.60
2022-08-17T15:54:04.503Z,30.60
2022-08-17T15:56:46.522Z,30.70
2022-08-17T15:59:13.590Z,31.20
2022-08-17T16:03:15.421Z,31.80
2022-08-17T16:04:30.936Z,32.30
2022-08-17T16:06:59.291Z,33.10
2022-08-17T16:09:26.334Z,34.00
2022-08-17T16:11:56.274Z,34.50
2022-08-17T16:14:25.476Z,35.00
2022-08-17T16:17:00.799Z,35.50
2022-08-17T16:19:27.771Z,35.60
2022-08-17T16:21:54.627Z,35.70
2022-08-17T16:24:21.744Z,35.40
2022-08-17T16:26:48.595Z,34.50
2022-08-17T16:29:15.475Z,34.20
2022-08-17T16:31:43.281Z,35.20
2022-08-17T16:34:17.266Z,36.00
2022-08-17T16:36:53.589Z,36.40
2022-08-17T16:39:25.539Z,37.20
2022-08-17T16:41:52.409Z,37.40
2022-08-17T16:44:21.357Z,38.00
2022-08-17T16:46:49.104Z,37.50
2022-08-17T16:49:23.223Z,37.70
2022-08-17T16:52:03.656Z,38.10
2022-08-17T16:54:30.594Z,38.50
2022-08-17T16:56:57.473Z,38.40
2022-08-17T16:59:31.381Z,38.20
2022-08-17T17:02:11.293Z,37.40
2022-08-17T17:04:48.118Z,37.30
2022-08-17T17:07:43.610Z,36.50
2022-08-17T17:10:14.952Z,35.90
2022-08-17T17:13:02.570Z,35.20
2022-08-17T17:15:54.986Z,34.00
2022-08-17T17:18:31.810Z,32.90
2022-08-17T17:20:58.775Z,31.70
2022-08-17T17:23:41.829Z,30.70
2022-08-17T17:26:24.676Z,29.80
2022-08-17T17:29:18.339Z,29.00
2022-08-17T17:32:13.786Z,28.50
2022-08-17T17:34:50.512Z,28.40
2022-08-17T17:37:24.859Z,28.10
2022-08-17T17:39:55.468Z,27.80
2022-08-17T17:42:28.312Z,27.50
2022-08-17T17:45:07.075Z,27.10
2022-08-17T17:47:34.979Z,26.90
2022-08-17T17:50:04.528Z,26.80
2022-08-17T17:52:49.656Z,26.60
2022-08-17T17:55:25.868Z,26.40
2022-08-17T17:58:14.051Z,26.00
2022-08-17T18:01:06.724Z,25.70
2022-08-17T18:03:51.703Z,25.40
2022-08-17T18:06:28.718Z,25.20
2022-08-17T18:09:19.470Z,25.00
2022-08-17T18:11:58.215Z,24.80
2022-08-17T18:14:58.666Z,24.60
2022-08-17T18:17:26.528Z,24.50
2022-08-17T18:19:56.088Z,24.40
2022-08-17T18:22:23.834Z,24.40
2022-08-17T18:24:57.248Z,24.30
2022-08-17T18:27:36.799Z,24.30
2022-08-17T18:30:18.391Z,24.20
2022-08-17T18:32:49.623Z,24.00
2022-08-17T18:35:19.487Z,23.80
2022-08-17T18:38:13.673Z,23.60
2022-08-17T18:40:42.770Z,23.50
2022-08-17T18:43:24.499Z,23.20
2022-08-17T18:45:57.334Z,23.10
2022-08-17T18:48:36.646Z,22.90
2022-08-17T18:51:40.839Z,22.90
2022-08-17T18:54:24.212Z,22.90
2022-08-17T18:56:56.813Z,22.90
2022-08-17T18:59:29.273Z,22.80
2022-08-17T19:02:27.263Z,22.80
2022-08-17T19:05:07.921Z,22.60
2022-08-17T19:07:38.774Z,22.40
2022-08-17T19:10:13.737Z,22.10
2022-08-17T19:13:00.151Z,22.00
2022-08-17T19:15:35.827Z,21.90
2022-08-17T19:18:31.797Z,21.80
2022-08-17T19:21:30.795Z,21.70
2022-08-17T19:24:04.524Z,21.60
2022-08-17T19:27:27.327Z,21.50
2022-08-17T19:30:10.291Z,21.40
2022-08-17T19:32:37.999Z,21.30
2022-08-17T19:35:07.686Z,21.40
2022-08-17T19:37:49.971Z,21.40
2022-08-17T19:40:53.971Z,21.40
2022-08-17T19:43:55.150Z,21.40
2022-08-17T19:46:50.089Z,21.30
2022-08-17T19:49:23.492Z,21.30
2022-08-17T19:52:52.814Z,21.30
2022-08-17T19:55:30.519Z,21.30
2022-08-17T19:58:06.482Z,21.30
2022-08-17T20:00:42.000Z,21.20
2022-08-17T20:03:16.817Z,21.10
2022-08-17T20:06:11.518Z,21.00
2022-08-17T20:08:42.479Z,20.90
2022-08-17T20:11:27.990Z,20.80
2022-08-17T20:14:06.883Z,20.60
2022-08-17T20:16:34.828Z,20.60
2022-08-17T20:19:08.555Z,20.50
2022-08-17T20:21:40.362Z,20.50
2022-08-17T20:24:35.091Z,20.40
2022-08-17T20:27:18.925Z,20.40
2022-08-17T20:30:10.759Z,20.40
2022-08-17T20:32:52.277Z,20.50
2022-08-17T20:35:33.831Z,20.40
2022-08-17T20:38:41.116Z,20.50
2022-08-17T20:41:17.212Z,20.50
2022-08-17T20:43:51.110Z,20.50
2022-08-17T20:46:26.979Z,20.40
2022-08-17T20:49:08.780Z,20.40
2022-08-17T20:52:00.861Z,20.30
2022-08-17T20:54:46.571Z,20.20
2022-08-17T20:57:32.129Z,20.10
2022-08-17T21:00:16.563Z,19.90
2022-08-17T21:02:49.801Z,19.80
2022-08-17T21:05:59.961Z,19.80
2022-08-17T21:08:45.825Z,19.80
2022-08-17T21:12:02.499Z,19.70
2022-08-17T21:14:33.673Z,19.70
2022-08-17T21:17:35.113Z,19.60
2022-08-17T21:20:36.476Z,19.60
2022-08-17T21:23:12.571Z,19.60
2022-08-17T21:26:02.454Z,19.60
2022-08-17T21:29:01.102Z,19.50
2022-08-17T21:31:36.857Z,19.40
2022-08-17T21:34:16.025Z,19.50
2022-08-17T21:36:44.472Z,19.50
2022-08-17T21:39:23.295Z,19.50
2022-08-17T21:41:57.330Z,19.60
2022-08-17T21:44:36.663Z,19.50
2022-08-17T21:47:25.244Z,19.60
2022-08-17T21:49:53.568Z,19.50
2022-08-17T21:52:23.640Z,19.40
2022-08-17T21:54:54.532Z,19.40
2022-08-17T21:57:27.602Z,19.40
2022-08-17T21:59:58.597Z,19.30
2022-08-17T22:02:35.400Z,19.30
2022-08-17T22:05:10.256Z,19.20
2022-08-17T22:07:44.205Z,19.20
2022-08-17T22:10:31.475Z,19.10
2022-08-17T22:13:17.001Z,19.00
2022-08-17T22:16:15.400Z,18.90
2022-08-17T22:18:57.750Z,18.80
2022-08-17T22:21:25.139Z,18.80
2022-08-17T22:24:05.216Z,18.70
2022-08-17T22:27:02.184Z,18.60
2022-08-17T22:29:44.399Z,18.60
2022-08-17T22:32:29.292Z,18.60
2022-08-17T22:35:19.615Z,18.60
2022-08-17T22:37:46.973Z,18.70
2022-08-17T22:40:25.666Z,18.60
2022-08-17T22:42:53.560Z,18.60
2022-08-17T22:45:20.487Z,18.50
2022-08-17T22:47:48.945Z,18.50
2022-08-17T22:50:29.209Z,18.50
2022-08-17T22:53:32.713Z,18.40
2022-08-17T22:56:18.561Z,18.40
2022-08-17T22:59:13.569Z,18.40
2022-08-17T23:01:41.732Z,18.40
2022-08-17T23:04:29.395Z,18.40
2022-08-17T23:06:56.668Z,18.40
2022-08-17T23:09:23.663Z,18.50
2022-08-17T23:11:57.364Z,18.60
2022-08-17T23:14:31.350Z,18.80
2022-08-17T23:16:59.378Z,18.80
2022-08-17T23:19:27.403Z,18.90
2022-08-17T23:21:59.028Z,18.90
2022-08-17T23:24:28.345Z,18.90
2022-08-17T23:26:57.445Z,18.90
2022-08-17T23:29:29.401Z,18.90
2022-08-17T23:31:59.818Z,18.90
2022-08-17T23:34:28.134Z,18.80
2022-08-17T23:36:55.578Z,18.90
2022-08-17T23:39:24.623Z,19.00
2022-08-17T23:41:55.179Z,19.20
2022-08-17T23:44:23.545Z,19.30
2022-08-17T23:46:54.096Z,19.40
2022-08-17T23:49:21.094Z,19.40
2022-08-17T23:51:48.936Z,19.40
2022-08-17T23:54:35.107Z,19.40
2022-08-17T23:57:04.697Z,19.40
2022-08-17T23:59:33.912Z,19.40
